sensor_id;sensor_type;location;lat;lon;timestamp;P1;durP1;ratioP1;P2;durP2;ratioP2
75864;SDS011;64510;46.704;38.274;2023-04-24T00:00:27;14.75;;;8.77;;
75864;SDS011;64510;46.704;38.274;2023-04-24T00:02:53;21.77;;;9.85;;
75864;SDS011;64510;46.704;38.274;2023-04-24T00:05:22;17.15;;;6.70;;
75864;SDS011;64510;46.704;38.274;2023-04-24T00:07:48;11.07;;;6.55;;
75864;SDS011;64510;46.704;38.274;2023-04-24T00:10:18;16.08;;;7.70;;
75864;SDS011;64510;46.704;38.274;2023-04-24T00:12:44;12.02;;;7.60;;
75864;SDS011;64510;46.704;38.274;2023-04-24T00:15:10;12.50;;;7.00;;
75864;SDS011;64510;46.704;38.274;2023-04-24T00:17:36;11.32;;;6.47;;
75864;SDS011;64510;46.704;38.274;2023-04-24T00:20:03;16.83;;;7.55;;
75864;SDS011;64510;46.704;38.274;2023-04-24T00:22:30;14.70;;;7.53;;
75864;SDS011;64510;46.704;38.274;2023-04-24T00:24:56;11.65;;;7.22;;
75864;SDS011;64510;46.704;38.274;2023-04-24T00:27:22;12.23;;;6.43;;
75864;SDS011;64510;46.704;38.274;2023-04-24T00:29:49;10.48;;;6.90;;
75864;SDS011;64510;46.704;38.274;2023-04-24T00:32:15;16.33;;;7.53;;
75864;SDS011;64510;46.704;38.274;2023-04-24T00:34:41;13.98;;;7.63;;
75864;SDS011;64510;46.704;38.274;2023-04-24T00:37:07;11.77;;;7.60;;
75864;SDS011;64510;46.704;38.274;2023-04-24T00:39:33;15.57;;;8.35;;
75864;SDS011;64510;46.704;38.274;2023-04-24T00:41:59;16.83;;;8.55;;
75864;SDS011;64510;46.704;38.274;2023-04-24T00:44:26;20.50;;;9.55;;
75864;SDS011;64510;46.704;38.274;2023-04-24T00:46:53;17.48;;;10.00;;
75864;SDS011;64510;46.704;38.274;2023-04-24T00:49:21;19.90;;;10.88;;
75864;SDS011;64510;46.704;38.274;2023-04-24T00:51:47;14.85;;;7.63;;
75864;SDS011;64510;46.704;38.274;2023-04-24T00:54:14;18.15;;;8.75;;
75864;SDS011;64510;46.704;38.274;2023-04-24T00:56:41;17.80;;;9.18;;
75864;SDS011;64510;46.704;38.274;2023-04-24T00:59:09;13.27;;;8.05;;
75864;SDS011;64510;46.704;38.274;2023-04-24T01:01:35;12.50;;;8.60;;
75864;SDS011;64510;46.704;38.274;2023-04-24T01:04:02;16.63;;;7.97;;
75864;SDS011;64510;46.704;38.274;2023-04-24T01:06:28;12.65;;;7.30;;
75864;SDS011;64510;46.704;38.274;2023-04-24T01:08:57;11.00;;;6.53;;
75864;SDS011;64510;46.704;38.274;2023-04-24T01:11:24;11.73;;;6.05;;
75864;SDS011;64510;46.704;38.274;2023-04-24T01:13:51;12.68;;;6.47;;
75864;SDS011;64510;46.704;38.274;2023-04-24T01:16:18;12.90;;;6.78;;
75864;SDS011;64510;46.704;38.274;2023-04-24T01:18:46;9.32;;;5.70;;
75864;SDS011;64510;46.704;38.274;2023-04-24T01:21:15;8.50;;;7.15;;
75864;SDS011;64510;46.704;38.274;2023-04-24T01:23:45;11.95;;;6.60;;
75864;SDS011;64510;46.704;38.274;2023-04-24T01:26:12;8.55;;;5.50;;
75864;SDS011;64510;46.704;38.274;2023-04-24T01:28:43;10.07;;;5.63;;
75864;SDS011;64510;46.704;38.274;2023-04-24T01:31:09;9.20;;;5.40;;
75864;SDS011;64510;46.704;38.274;2023-04-24T01:33:35;7.65;;;5.10;;
75864;SDS011;64510;46.704;38.274;2023-04-24T01:36:01;8.65;;;5.25;;
75864;SDS011;64510;46.704;38.274;2023-04-24T01:38:27;7.78;;;5.45;;
75864;SDS011;64510;46.704;38.274;2023-04-24T01:40:53;11.35;;;6.03;;
75864;SDS011;64510;46.704;38.274;2023-04-24T01:43:19;13.48;;;6.18;;
75864;SDS011;64510;46.704;38.274;2023-04-24T01:45:45;9.73;;;6.53;;
75864;SDS011;64510;46.704;38.274;2023-04-24T01:48:11;12.45;;;5.78;;
75864;SDS011;64510;46.704;38.274;2023-04-24T01:50:38;9.93;;;5.60;;
75864;SDS011;64510;46.704;38.274;2023-04-24T01:53:04;12.60;;;6.22;;
75864;SDS011;64510;46.704;38.274;2023-04-24T01:55:30;11.45;;;6.32;;
75864;SDS011;64510;46.704;38.274;2023-04-24T01:57:56;14.50;;;6.95;;
75864;SDS011;64510;46.704;38.274;2023-04-24T02:00:24;12.55;;;7.72;;
75864;SDS011;64510;46.704;38.274;2023-04-24T02:02:52;13.02;;;7.28;;
75864;SDS011;64510;46.704;38.274;2023-04-24T02:05:18;18.20;;;8.30;;
75864;SDS011;64510;46.704;38.274;2023-04-24T02:07:43;16.30;;;7.97;;
75864;SDS011;64510;46.704;38.274;2023-04-24T02:10:09;18.73;;;7.65;;
75864;SDS011;64510;46.704;38.274;2023-04-24T02:12:41;15.27;;;8.32;;
75864;SDS011;64510;46.704;38.274;2023-04-24T02:15:07;15.30;;;8.32;;
75864;SDS011;64510;46.704;38.274;2023-04-24T02:17:36;12.27;;;7.25;;
75864;SDS011;64510;46.704;38.274;2023-04-24T02:20:03;18.77;;;8.48;;
75864;SDS011;64510;46.704;38.274;2023-04-24T02:22:30;20.02;;;8.20;;
75864;SDS011;64510;46.704;38.274;2023-04-24T02:25:00;12.35;;;6.78;;
75864;SDS011;64510;46.704;38.274;2023-04-24T02:27:26;17.00;;;7.07;;
75864;SDS011;64510;46.704;38.274;2023-04-24T02:29:52;11.75;;;7.50;;
75864;SDS011;64510;46.704;38.274;2023-04-24T02:32:18;12.60;;;7.80;;
75864;SDS011;64510;46.704;38.274;2023-04-24T02:34:44;15.13;;;8.77;;
75864;SDS011;64510;46.704;38.274;2023-04-24T02:37:11;17.73;;;9.65;;
75864;SDS011;64510;46.704;38.274;2023-04-24T02:39:37;20.13;;;9.60;;
75864;SDS011;64510;46.704;38.274;2023-04-24T02:42:03;17.00;;;9.25;;
75864;SDS011;64510;46.704;38.274;2023-04-24T02:44:29;23.33;;;9.48;;
75864;SDS011;64510;46.704;38.274;2023-04-24T02:46:55;15.38;;;8.40;;
75864;SDS011;64510;46.704;38.274;2023-04-24T02:49:22;10.80;;;6.90;;
75864;SDS011;64510;46.704;38.274;2023-04-24T02:51:48;7.15;;;4.68;;
75864;SDS011;64510;46.704;38.274;2023-04-24T02:54:13;6.53;;;4.90;;
75864;SDS011;64510;46.704;38.274;2023-04-24T02:56:39;8.43;;;3.63;;
75864;SDS011;64510;46.704;38.274;2023-04-24T02:59:07;5.03;;;3.53;;
75864;SDS011;64510;46.704;38.274;2023-04-24T03:01:33;3.97;;;2.97;;
75864;SDS011;64510;46.704;38.274;2023-04-24T03:03:59;6.53;;;3.70;;
75864;SDS011;64510;46.704;38.274;2023-04-24T03:06:25;5.70;;;2.80;;
75864;SDS011;64510;46.704;38.274;2023-04-24T03:08:52;6.45;;;2.83;;
75864;SDS011;64510;46.704;38.274;2023-04-24T03:11:18;4.25;;;2.65;;
75864;SDS011;64510;46.704;38.274;2023-04-24T03:13:45;2.50;;;2.10;;
75864;SDS011;64510;46.704;38.274;2023-04-24T03:16:10;2.42;;;2.20;;
75864;SDS011;64510;46.704;38.274;2023-04-24T03:18:36;2.63;;;2.40;;
75864;SDS011;64510;46.704;38.274;2023-04-24T03:21:04;3.63;;;2.25;;
75864;SDS011;64510;46.704;38.274;2023-04-24T03:23:30;2.45;;;2.25;;
75864;SDS011;64510;46.704;38.274;2023-04-24T03:25:56;3.17;;;2.15;;
75864;SDS011;64510;46.704;38.274;2023-04-24T03:28:23;3.05;;;1.98;;
75864;SDS011;64510;46.704;38.274;2023-04-24T03:30:59;2.85;;;2.30;;
75864;SDS011;64510;46.704;38.274;2023-04-24T03:33:28;2.60;;;1.92;;
75864;SDS011;64510;46.704;38.274;2023-04-24T03:35:59;2.30;;;2.10;;
75864;SDS011;64510;46.704;38.274;2023-04-24T03:38:34;4.93;;;2.40;;
75864;SDS011;64510;46.704;38.274;2023-04-24T03:41:15;3.85;;;2.13;;
75864;SDS011;64510;46.704;38.274;2023-04-24T03:43:48;4.43;;;1.92;;
75864;SDS011;64510;46.704;38.274;2023-04-24T03:46:14;3.70;;;2.28;;
75864;SDS011;64510;46.704;38.274;2023-04-24T03:48:46;2.53;;;1.98;;
75864;SDS011;64510;46.704;38.274;2023-04-24T03:51:14;5.00;;;1.98;;
75864;SDS011;64510;46.704;38.274;2023-04-24T03:53:43;4.10;;;1.83;;
75864;SDS011;64510;46.704;38.274;2023-04-24T03:56:11;3.25;;;1.67;;
75864;SDS011;64510;46.704;38.274;2023-04-24T03:58:39;9.30;;;2.20;;
75864;SDS011;64510;46.704;38.274;2023-04-24T04:01:05;4.53;;;1.70;;
75864;SDS011;64510;46.704;38.274;2023-04-24T04:03:37;6.97;;;2.70;;
75864;SDS011;64510;46.704;38.274;2023-04-24T04:06:03;7.45;;;2.45;;
75864;SDS011;64510;46.704;38.274;2023-04-24T04:08:29;3.85;;;1.88;;
75864;SDS011;64510;46.704;38.274;2023-04-24T04:10:56;6.38;;;1.95;;
75864;SDS011;64510;46.704;38.274;2023-04-24T04:13:22;2.03;;;1.85;;
75864;SDS011;64510;46.704;38.274;2023-04-24T04:15:48;1.92;;;1.80;;
75864;SDS011;64510;46.704;38.274;2023-04-24T04:18:14;2.85;;;1.60;;
75864;SDS011;64510;46.704;38.274;2023-04-24T04:20:41;4.13;;;2.78;;
75864;SDS011;64510;46.704;38.274;2023-04-24T04:23:08;2.90;;;2.10;;
75864;SDS011;64510;46.704;38.274;2023-04-24T04:25:48;6.10;;;2.83;;
75864;SDS011;64510;46.704;38.274;2023-04-24T04:28:17;3.55;;;2.00;;
75864;SDS011;64510;46.704;38.274;2023-04-24T04:30:46;2.92;;;1.95;;
75864;SDS011;64510;46.704;38.274;2023-04-24T04:33:13;5.88;;;2.22;;
75864;SDS011;64510;46.704;38.274;2023-04-24T04:35:40;3.75;;;2.47;;
75864;SDS011;64510;46.704;38.274;2023-04-24T04:38:06;3.85;;;2.65;;
75864;SDS011;64510;46.704;38.274;2023-04-24T04:41:01;3.70;;;3.28;;
75864;SDS011;64510;46.704;38.274;2023-04-24T04:43:30;3.90;;;2.20;;
75864;SDS011;64510;46.704;38.274;2023-04-24T04:45:58;4.45;;;2.45;;
75864;SDS011;64510;46.704;38.274;2023-04-24T04:49:04;2.97;;;1.85;;
75864;SDS011;64510;46.704;38.274;2023-04-24T04:51:29;2.05;;;1.27;;
75864;SDS011;64510;46.704;38.274;2023-04-24T04:53:56;3.63;;;2.03;;
75864;SDS011;64510;46.704;38.274;2023-04-24T04:56:23;5.80;;;1.90;;
75864;SDS011;64510;46.704;38.274;2023-04-24T04:58:50;3.13;;;1.83;;
75864;SDS011;64510;46.704;38.274;2023-04-24T05:01:16;1.90;;;1.80;;
75864;SDS011;64510;46.704;38.274;2023-04-24T05:03:45;2.53;;;1.67;;
75864;SDS011;64510;46.704;38.274;2023-04-24T05:06:15;1.92;;;1.30;;
75864;SDS011;64510;46.704;38.274;2023-04-24T05:08:42;3.33;;;1.98;;
75864;SDS011;64510;46.704;38.274;2023-04-24T05:11:14;3.38;;;1.73;;
75864;SDS011;64510;46.704;38.274;2023-04-24T05:13:40;2.75;;;1.60;;
75864;SDS011;64510;46.704;38.274;2023-04-24T05:16:12;3.72;;;1.77;;
75864;SDS011;64510;46.704;38.274;2023-04-24T05:18:38;2.40;;;1.50;;
75864;SDS011;64510;46.704;38.274;2023-04-24T05:21:06;1.50;;;1.40;;
75864;SDS011;64510;46.704;38.274;2023-04-24T05:23:34;2.55;;;1.95;;
75864;SDS011;64510;46.704;38.274;2023-04-24T05:26:00;1.60;;;1.38;;
75864;SDS011;64510;46.704;38.274;2023-04-24T05:28:26;5.80;;;1.73;;
75864;SDS011;64510;46.704;38.274;2023-04-24T05:31:02;4.38;;;1.75;;
75864;SDS011;64510;46.704;38.274;2023-04-24T05:33:29;1.75;;;1.60;;
75864;SDS011;64510;46.704;38.274;2023-04-24T05:35:55;4.75;;;1.83;;
75864;SDS011;64510;46.704;38.274;2023-04-24T05:38:21;4.13;;;1.52;;
75864;SDS011;64510;46.704;38.274;2023-04-24T05:40:47;1.50;;;1.40;;
75864;SDS011;64510;46.704;38.274;2023-04-24T05:43:13;1.83;;;1.45;;
75864;SDS011;64510;46.704;38.274;2023-04-24T05:45:39;4.18;;;1.55;;
75864;SDS011;64510;46.704;38.274;2023-04-24T05:48:05;1.50;;;1.27;;
75864;SDS011;64510;46.704;38.274;2023-04-24T05:50:32;3.65;;;1.67;;
75864;SDS011;64510;46.704;38.274;2023-04-24T05:52:58;2.40;;;1.92;;
75864;SDS011;64510;46.704;38.274;2023-04-24T05:55:28;5.40;;;2.30;;
75864;SDS011;64510;46.704;38.274;2023-04-24T05:57:54;2.60;;;2.30;;
75864;SDS011;64510;46.704;38.274;2023-04-24T06:00:20;2.00;;;1.80;;
75864;SDS011;64510;46.704;38.274;2023-04-24T06:02:56;4.03;;;1.40;;
75864;SDS011;64510;46.704;38.274;2023-04-24T06:05:22;3.88;;;1.85;;
75864;SDS011;64510;46.704;38.274;2023-04-24T06:07:52;1.77;;;1.67;;
75864;SDS011;64510;46.704;38.274;2023-04-24T06:10:19;4.78;;;3.53;;
75864;SDS011;64510;46.704;38.274;2023-04-24T06:12:45;2.53;;;1.75;;
75864;SDS011;64510;46.704;38.274;2023-04-24T06:15:15;2.25;;;1.73;;
75864;SDS011;64510;46.704;38.274;2023-04-24T06:18:08;4.78;;;2.60;;
75864;SDS011;64510;46.704;38.274;2023-04-24T06:20:36;2.97;;;2.30;;
75864;SDS011;64510;46.704;38.274;2023-04-24T06:23:02;6.57;;;2.65;;
75864;SDS011;64510;46.704;38.274;2023-04-24T06:25:28;3.83;;;2.53;;
75864;SDS011;64510;46.704;38.274;2023-04-24T06:27:54;2.58;;;2.33;;
75864;SDS011;64510;46.704;38.274;2023-04-24T06:30:20;3.15;;;2.67;;
75864;SDS011;64510;46.704;38.274;2023-04-24T06:32:46;6.65;;;3.15;;
75864;SDS011;64510;46.704;38.274;2023-04-24T06:35:14;5.90;;;4.25;;
75864;SDS011;64510;46.704;38.274;2023-04-24T06:37:40;4.82;;;3.20;;
75864;SDS011;64510;46.704;38.274;2023-04-24T06:40:07;5.22;;;4.10;;
75864;SDS011;64510;46.704;38.274;2023-04-24T06:42:33;4.47;;;3.22;;
75864;SDS011;64510;46.704;38.274;2023-04-24T06:45:01;4.10;;;3.00;;
75864;SDS011;64510;46.704;38.274;2023-04-24T06:47:28;6.18;;;3.85;;
75864;SDS011;64510;46.704;38.274;2023-04-24T06:49:55;7.13;;;4.55;;
75864;SDS011;64510;46.704;38.274;2023-04-24T06:52:21;14.38;;;8.15;;
75864;SDS011;64510;46.704;38.274;2023-04-24T06:54:46;8.88;;;5.63;;
75864;SDS011;64510;46.704;38.274;2023-04-24T06:57:12;10.18;;;6.70;;
75864;SDS011;64510;46.704;38.274;2023-04-24T06:59:38;12.13;;;6.10;;
75864;SDS011;64510;46.704;38.274;2023-04-24T07:02:04;5.43;;;4.88;;
75864;SDS011;64510;46.704;38.274;2023-04-24T07:04:31;8.38;;;5.03;;
75864;SDS011;64510;46.704;38.274;2023-04-24T07:06:57;9.18;;;4.95;;
75864;SDS011;64510;46.704;38.274;2023-04-24T07:09:23;7.22;;;5.63;;
75864;SDS011;64510;46.704;38.274;2023-04-24T07:11:51;6.85;;;5.07;;
75864;SDS011;64510;46.704;38.274;2023-04-24T07:14:18;5.13;;;3.55;;
75864;SDS011;64510;46.704;38.274;2023-04-24T07:16:44;6.32;;;4.75;;
75864;SDS011;64510;46.704;38.274;2023-04-24T07:19:10;15.27;;;4.55;;
75864;SDS011;64510;46.704;38.274;2023-04-24T07:21:36;7.78;;;5.15;;
75864;SDS011;64510;46.704;38.274;2023-04-24T07:24:02;12.35;;;5.57;;
75864;SDS011;64510;46.704;38.274;2023-04-24T07:26:29;5.40;;;4.25;;
75864;SDS011;64510;46.704;38.274;2023-04-24T07:28:55;7.68;;;5.07;;
75864;SDS011;64510;46.704;38.274;2023-04-24T07:31:21;11.60;;;6.50;;
75864;SDS011;64510;46.704;38.274;2023-04-24T07:33:47;10.52;;;6.70;;
75864;SDS011;64510;46.704;38.274;2023-04-24T07:36:14;9.88;;;5.78;;
75864;SDS011;64510;46.704;38.274;2023-04-24T07:38:46;9.50;;;5.18;;
75864;SDS011;64510;46.704;38.274;2023-04-24T07:41:13;10.27;;;5.95;;
75864;SDS011;64510;46.704;38.274;2023-04-24T07:43:40;7.95;;;5.28;;
75864;SDS011;64510;46.704;38.274;2023-04-24T07:46:06;4.68;;;3.92;;
75864;SDS011;64510;46.704;38.274;2023-04-24T07:48:33;8.82;;;4.90;;
75864;SDS011;64510;46.704;38.274;2023-04-24T07:50:59;9.40;;;5.47;;
75864;SDS011;64510;46.704;38.274;2023-04-24T07:53:25;6.38;;;4.53;;
75864;SDS011;64510;46.704;38.274;2023-04-24T07:55:51;13.38;;;4.53;;
75864;SDS011;64510;46.704;38.274;2023-04-24T07:58:17;6.70;;;4.90;;
75864;SDS011;64510;46.704;38.274;2023-04-24T08:00:42;7.57;;;4.28;;
75864;SDS011;64510;46.704;38.274;2023-04-24T08:03:08;7.57;;;3.97;;
75864;SDS011;64510;46.704;38.274;2023-04-24T08:05:34;9.88;;;4.45;;
75864;SDS011;64510;46.704;38.274;2023-04-24T08:08:00;7.97;;;4.72;;
75864;SDS011;64510;46.704;38.274;2023-04-24T08:10:26;8.32;;;5.30;;
75864;SDS011;64510;46.704;38.274;2023-04-24T08:12:52;7.10;;;4.80;;
75864;SDS011;64510;46.704;38.274;2023-04-24T08:15:18;6.82;;;5.03;;
75864;SDS011;64510;46.704;38.274;2023-04-24T08:17:44;8.85;;;5.60;;
75864;SDS011;64510;46.704;38.274;2023-04-24T08:20:10;7.78;;;5.00;;
75864;SDS011;64510;46.704;38.274;2023-04-24T08:22:42;9.63;;;6.25;;
75864;SDS011;64510;46.704;38.274;2023-04-24T08:25:09;7.10;;;5.22;;
75864;SDS011;64510;46.704;38.274;2023-04-24T08:27:36;7.38;;;5.07;;
75864;SDS011;64510;46.704;38.274;2023-04-24T08:30:02;8.05;;;5.30;;
75864;SDS011;64510;46.704;38.274;2023-04-24T08:32:29;5.78;;;3.75;;
75864;SDS011;64510;46.704;38.274;2023-04-24T08:34:55;9.93;;;5.43;;
75864;SDS011;64510;46.704;38.274;2023-04-24T08:37:23;9.23;;;3.90;;
75864;SDS011;64510;46.704;38.274;2023-04-24T08:39:49;8.15;;;4.38;;
75864;SDS011;64510;46.704;38.274;2023-04-24T08:42:16;8.65;;;5.32;;
75864;SDS011;64510;46.704;38.274;2023-04-24T08:44:43;9.95;;;4.38;;
75864;SDS011;64510;46.704;38.274;2023-04-24T08:47:10;8.38;;;5.30;;
75864;SDS011;64510;46.704;38.274;2023-04-24T08:49:37;6.97;;;4.40;;
75864;SDS011;64510;46.704;38.274;2023-04-24T08:52:07;3.80;;;3.35;;
75864;SDS011;64510;46.704;38.274;2023-04-24T08:54:34;3.70;;;3.23;;
75864;SDS011;64510;46.704;38.274;2023-04-24T08:57:01;4.70;;;3.08;;
75864;SDS011;64510;46.704;38.274;2023-04-24T08:59:29;8.30;;;5.03;;
75864;SDS011;64510;46.704;38.274;2023-04-24T09:01:56;5.85;;;4.10;;
75864;SDS011;64510;46.704;38.274;2023-04-24T09:04:23;6.53;;;3.60;;
75864;SDS011;64510;46.704;38.274;2023-04-24T09:06:56;9.43;;;4.07;;
75864;SDS011;64510;46.704;38.274;2023-04-24T09:09:23;14.52;;;8.45;;
75864;SDS011;64510;46.704;38.274;2023-04-24T09:11:50;13.93;;;8.15;;
75864;SDS011;64510;46.704;38.274;2023-04-24T09:14:20;14.03;;;6.73;;
75864;SDS011;64510;46.704;38.274;2023-04-24T09:16:46;9.80;;;6.15;;
75864;SDS011;64510;46.704;38.274;2023-04-24T09:19:12;8.43;;;5.32;;
75864;SDS011;64510;46.704;38.274;2023-04-24T09:21:38;8.80;;;4.10;;
75864;SDS011;64510;46.704;38.274;2023-04-24T09:24:08;13.40;;;7.53;;
75864;SDS011;64510;46.704;38.274;2023-04-24T09:26:43;9.80;;;4.82;;
75864;SDS011;64510;46.704;38.274;2023-04-24T09:29:14;7.20;;;4.50;;
75864;SDS011;64510;46.704;38.274;2023-04-24T09:31:44;12.40;;;7.30;;
75864;SDS011;64510;46.704;38.274;2023-04-24T09:34:11;13.48;;;7.30;;
75864;SDS011;64510;46.704;38.274;2023-04-24T09:36:38;10.77;;;6.07;;
75864;SDS011;64510;46.704;38.274;2023-04-24T09:39:09;8.98;;;5.18;;
75864;SDS011;64510;46.704;38.274;2023-04-24T09:41:44;8.40;;;5.60;;
75864;SDS011;64510;46.704;38.274;2023-04-24T09:44:18;10.35;;;6.63;;
75864;SDS011;64510;46.704;38.274;2023-04-24T09:46:51;8.13;;;4.93;;
75864;SDS011;64510;46.704;38.274;2023-04-24T09:49:21;9.73;;;5.77;;
75864;SDS011;64510;46.704;38.274;2023-04-24T09:51:49;12.48;;;7.85;;
75864;SDS011;64510;46.704;38.274;2023-04-24T09:54:16;9.05;;;4.70;;
75864;SDS011;64510;46.704;38.274;2023-04-24T09:56:44;10.10;;;5.15;;
75864;SDS011;64510;46.704;38.274;2023-04-24T09:59:12;9.57;;;6.32;;
75864;SDS011;64510;46.704;38.274;2023-04-24T10:01:41;8.32;;;4.53;;
75864;SDS011;64510;46.704;38.274;2023-04-24T10:06:42;9.02;;;5.10;;
75864;SDS011;64510;46.704;38.274;2023-04-24T10:09:08;8.18;;;4.55;;
75864;SDS011;64510;46.704;38.274;2023-04-24T10:11:41;7.88;;;4.20;;
75864;SDS011;64510;46.704;38.274;2023-04-24T10:14:09;10.77;;;4.03;;
75864;SDS011;64510;46.704;38.274;2023-04-24T10:16:37;6.47;;;4.45;;
75864;SDS011;64510;46.704;38.274;2023-04-24T10:19:05;4.82;;;3.67;;
75864;SDS011;64510;46.704;38.274;2023-04-24T10:21:32;7.20;;;4.05;;
75864;SDS011;64510;46.704;38.274;2023-04-24T10:23:59;5.70;;;3.42;;
75864;SDS011;64510;46.704;38.274;2023-04-24T10:26:29;9.18;;;4.28;;
75864;SDS011;64510;46.704;38.274;2023-04-24T10:28:55;4.38;;;3.28;;
75864;SDS011;64510;46.704;38.274;2023-04-24T10:31:23;9.13;;;4.38;;
75864;SDS011;64510;46.704;38.274;2023-04-24T10:33:51;6.38;;;3.60;;
75864;SDS011;64510;46.704;38.274;2023-04-24T10:36:18;8.45;;;4.07;;
75864;SDS011;64510;46.704;38.274;2023-04-24T10:38:49;5.40;;;3.58;;
75864;SDS011;64510;46.704;38.274;2023-04-24T10:41:16;7.90;;;4.40;;
75864;SDS011;64510;46.704;38.274;2023-04-24T10:43:48;12.18;;;4.32;;
75864;SDS011;64510;46.704;38.274;2023-04-24T10:46:32;5.65;;;3.13;;
75864;SDS011;64510;46.704;38.274;2023-04-24T10:48:58;3.90;;;2.65;;
75864;SDS011;64510;46.704;38.274;2023-04-24T10:51:26;6.03;;;3.55;;
75864;SDS011;64510;46.704;38.274;2023-04-24T10:54:23;7.72;;;3.17;;
75864;SDS011;64510;46.704;38.274;2023-04-24T10:56:53;4.72;;;3.70;;
75864;SDS011;64510;46.704;38.274;2023-04-24T10:59:39;2.95;;;2.65;;
75864;SDS011;64510;46.704;38.274;2023-04-24T11:02:07;5.80;;;3.08;;
75864;SDS011;64510;46.704;38.274;2023-04-24T11:04:33;5.00;;;3.38;;
75864;SDS011;64510;46.704;38.274;2023-04-24T11:07:00;7.30;;;3.40;;
75864;SDS011;64510;46.704;38.274;2023-04-24T11:09:28;5.32;;;3.38;;
75864;SDS011;64510;46.704;38.274;2023-04-24T11:12:03;5.57;;;3.03;;
75864;SDS011;64510;46.704;38.274;2023-04-24T11:20:03;7.07;;;3.70;;
75864;SDS011;64510;46.704;38.274;2023-04-24T11:22:35;4.28;;;3.83;;
75864;SDS011;64510;46.704;38.274;2023-04-24T11:25:02;10.75;;;4.35;;
75864;SDS011;64510;46.704;38.274;2023-04-24T11:27:31;6.05;;;3.15;;
75864;SDS011;64510;46.704;38.274;2023-04-24T11:30:06;6.57;;;3.60;;
75864;SDS011;64510;46.704;38.274;2023-04-24T11:34:59;5.25;;;3.25;;
75864;SDS011;64510;46.704;38.274;2023-04-24T11:37:50;6.15;;;3.55;;
75864;SDS011;64510;46.704;38.274;2023-04-24T11:40:16;5.43;;;3.25;;
75864;SDS011;64510;46.704;38.274;2023-04-24T11:42:46;5.57;;;3.42;;
75864;SDS011;64510;46.704;38.274;2023-04-24T11:45:14;7.65;;;3.60;;
75864;SDS011;64510;46.704;38.274;2023-04-24T11:47:40;3.35;;;2.47;;
75864;SDS011;64510;46.704;38.274;2023-04-24T11:50:07;5.25;;;2.63;;
75864;SDS011;64510;46.704;38.274;2023-04-24T11:52:39;5.32;;;3.10;;
75864;SDS011;64510;46.704;38.274;2023-04-24T11:55:07;4.53;;;3.88;;
75864;SDS011;64510;46.704;38.274;2023-04-24T11:57:48;8.07;;;4.63;;
75864;SDS011;64510;46.704;38.274;2023-04-24T12:00:16;8.02;;;5.65;;
75864;SDS011;64510;46.704;38.274;2023-04-24T12:02:46;8.55;;;4.80;;
75864;SDS011;64510;46.704;38.274;2023-04-24T12:05:26;9.52;;;4.53;;
75864;SDS011;64510;46.704;38.274;2023-04-24T12:07:53;11.52;;;5.80;;
75864;SDS011;64510;46.704;38.274;2023-04-24T12:10:20;9.15;;;4.70;;
75864;SDS011;64510;46.704;38.274;2023-04-24T12:12:47;10.30;;;5.38;;
75864;SDS011;64510;46.704;38.274;2023-04-24T12:15:15;6.82;;;4.10;;
75864;SDS011;64510;46.704;38.274;2023-04-24T12:17:41;8.55;;;3.90;;
75864;SDS011;64510;46.704;38.274;2023-04-24T12:20:08;8.77;;;4.53;;
75864;SDS011;64510;46.704;38.274;2023-04-24T12:22:48;8.13;;;5.10;;
75864;SDS011;64510;46.704;38.274;2023-04-24T12:25:20;6.68;;;5.18;;
75864;SDS011;64510;46.704;38.274;2023-04-24T12:27:52;7.25;;;4.32;;
75864;SDS011;64510;46.704;38.274;2023-04-24T12:30:43;9.25;;;5.40;;
75864;SDS011;64510;46.704;38.274;2023-04-24T12:33:10;6.65;;;4.97;;
75864;SDS011;64510;46.704;38.274;2023-04-24T12:35:36;4.18;;;3.55;;
75864;SDS011;64510;46.704;38.274;2023-04-24T12:38:08;7.43;;;4.13;;
75864;SDS011;64510;46.704;38.274;2023-04-24T12:40:36;5.25;;;3.53;;
75864;SDS011;64510;46.704;38.274;2023-04-24T12:43:12;5.57;;;3.90;;
75864;SDS011;64510;46.704;38.274;2023-04-24T12:45:41;5.13;;;3.72;;
75864;SDS011;64510;46.704;38.274;2023-04-24T12:48:07;6.70;;;4.28;;
75864;SDS011;64510;46.704;38.274;2023-04-24T12:50:33;9.32;;;4.45;;
75864;SDS011;64510;46.704;38.274;2023-04-24T12:52:59;6.22;;;3.83;;
75864;SDS011;64510;46.704;38.274;2023-04-24T12:55:25;5.57;;;3.95;;
75864;SDS011;64510;46.704;38.274;2023-04-24T12:57:51;6.75;;;4.22;;
75864;SDS011;64510;46.704;38.274;2023-04-24T13:00:18;6.50;;;3.70;;
75864;SDS011;64510;46.704;38.274;2023-04-24T13:02:44;47.10;;;6.68;;
75864;SDS011;64510;46.704;38.274;2023-04-24T13:05:10;11.10;;;6.53;;
75864;SDS011;64510;46.704;38.274;2023-04-24T13:07:36;8.63;;;7.15;;
75864;SDS011;64510;46.704;38.274;2023-04-24T13:10:02;13.70;;;9.68;;
75864;SDS011;64510;46.704;38.274;2023-04-24T13:12:28;12.23;;;9.88;;
75864;SDS011;64510;46.704;38.274;2023-04-24T13:14:54;12.55;;;8.77;;
75864;SDS011;64510;46.704;38.274;2023-04-24T13:17:21;19.13;;;11.93;;
75864;SDS011;64510;46.704;38.274;2023-04-24T13:19:49;20.70;;;13.70;;
75864;SDS011;64510;46.704;38.274;2023-04-24T13:22:16;21.20;;;13.25;;
75864;SDS011;64510;46.704;38.274;2023-04-24T13:24:46;16.77;;;12.20;;
75864;SDS011;64510;46.704;38.274;2023-04-24T13:27:14;26.52;;;13.68;;
75864;SDS011;64510;46.704;38.274;2023-04-24T13:29:40;20.90;;;14.80;;
75864;SDS011;64510;46.704;38.274;2023-04-24T13:32:07;23.08;;;14.10;;
75864;SDS011;64510;46.704;38.274;2023-04-24T13:34:33;22.73;;;11.90;;
75864;SDS011;64510;46.704;38.274;2023-04-24T13:37:02;9.55;;;6.63;;
75864;SDS011;64510;46.704;38.274;2023-04-24T13:39:29;12.80;;;7.65;;
75864;SDS011;64510;46.704;38.274;2023-04-24T13:41:56;14.48;;;7.53;;
75864;SDS011;64510;46.704;38.274;2023-04-24T13:44:22;10.00;;;7.13;;
75864;SDS011;64510;46.704;38.274;2023-04-24T13:46:49;5.72;;;4.40;;
75864;SDS011;64510;46.704;38.274;2023-04-24T13:49:19;6.40;;;4.15;;
75864;SDS011;64510;46.704;38.274;2023-04-24T13:51:46;28.45;;;11.10;;
75864;SDS011;64510;46.704;38.274;2023-04-24T13:54:12;13.35;;;7.15;;
75864;SDS011;64510;46.704;38.274;2023-04-24T13:56:39;6.35;;;4.97;;
75864;SDS011;64510;46.704;38.274;2023-04-24T13:59:05;7.25;;;4.55;;
75864;SDS011;64510;46.704;38.274;2023-04-24T14:01:31;5.20;;;3.75;;
75864;SDS011;64510;46.704;38.274;2023-04-24T14:03:57;5.78;;;4.22;;
75864;SDS011;64510;46.704;38.274;2023-04-24T14:06:23;5.13;;;4.38;;
75864;SDS011;64510;46.704;38.274;2023-04-24T14:08:49;10.90;;;5.22;;
75864;SDS011;64510;46.704;38.274;2023-04-24T14:11:16;4.78;;;3.75;;
75864;SDS011;64510;46.704;38.274;2023-04-24T14:13:43;6.20;;;4.38;;
75864;SDS011;64510;46.704;38.274;2023-04-24T14:16:09;5.82;;;4.38;;
75864;SDS011;64510;46.704;38.274;2023-04-24T14:18:35;5.40;;;3.85;;
75864;SDS011;64510;46.704;38.274;2023-04-24T14:21:02;4.97;;;3.50;;
75864;SDS011;64510;46.704;38.274;2023-04-24T14:23:28;7.10;;;4.43;;
75864;SDS011;64510;46.704;38.274;2023-04-24T14:25:54;10.07;;;6.68;;
75864;SDS011;64510;46.704;38.274;2023-04-24T14:28:21;14.73;;;7.05;;
75864;SDS011;64510;46.704;38.274;2023-04-24T14:30:47;5.70;;;4.88;;
75864;SDS011;64510;46.704;38.274;2023-04-24T14:33:13;7.80;;;5.10;;
75864;SDS011;64510;46.704;38.274;2023-04-24T14:35:40;8.35;;;4.93;;
75864;SDS011;64510;46.704;38.274;2023-04-24T14:38:07;8.27;;;5.93;;
75864;SDS011;64510;46.704;38.274;2023-04-24T14:40:34;10.00;;;6.07;;
75864;SDS011;64510;46.704;38.274;2023-04-24T14:43:00;4.53;;;3.85;;
75864;SDS011;64510;46.704;38.274;2023-04-24T14:45:26;6.28;;;4.38;;